Time;durP1;ratioP1;P1;durP2;ratioP2;P2;SDS_P1;SDS_P2;PMS_P1;PMS_P2;Temp;Humidity;BMP_temperature;BMP_pressure;BME280_temperature;BME280_humidity;BME280_pressure;Samples;Min_cycle;Max_cycle;Signal;HPM_P1;HPM_P2
2021/04/21 00:01:03;;;;;;;14.25;10.23;;;205.50;2252.80;;;;;;5074969;28;20032;-70
2021/04/21 00:03:30;;;;;;;15.35;10.57;;;205.50;2252.80;;;;;;5083553;28;20419;-70
2021/04/21 00:05:59;;;;;;;13.70;9.85;;;205.40;2252.80;;;;;;5072490;28;20111;-69
2021/04/21 00:08:26;;;;;;;14.65;10.05;;;205.40;2252.80;;;;;;5073033;28;20035;-69
2021/04/21 00:10:53;;;;;;;15.73;10.93;;;205.40;2252.80;;;;;;5072429;28;20496;-71
2021/04/21 00:13:21;;;;;;;14.73;10.68;;;205.50;2252.80;;;;;;5073242;28;20024;-69
2021/04/21 00:15:48;;;;;;;14.68;11.07;;;205.50;2252.80;;;;;;5073000;28;20043;-69
2021/04/21 00:18:15;;;;;;;16.98;11.18;;;205.50;2252.80;;;;;;5072643;28;20075;-69
2021/04/21 00:20:42;;;;;;;16.30;11.52;;;205.50;2252.80;;;;;;5072606;28;20359;-69
2021/04/21 00:23:11;;;;;;;15.05;10.80;;;205.40;2252.80;;;;;;5072761;28;20059;-71
2021/04/21 00:25:38;;;;;;;13.70;10.15;;;205.40;2252.80;;;;;;5072650;28;20515;-69
2021/04/21 00:28:05;;;;;;;13.98;10.05;;;205.30;2252.80;;;;;;5072607;28;20032;-69
2021/04/21 00:30:33;;;;;;;15.25;10.90;;;205.30;2252.80;;;;;;5072380;28;20024;-69
2021/04/21 00:33:00;;;;;;;18.20;12.68;;;205.30;2252.80;;;;;;5072362;28;20064;-69
2021/04/21 00:35:39;;;;;;;17.20;11.63;;;205.20;2252.80;;;;;;5072698;28;20028;-69
2021/04/21 00:38:11;;;;;;;16.25;11.13;;;205.20;2252.80;;;;;;5072538;28;20056;-70
2021/04/21 00:40:41;;;;;;;19.70;12.85;;;205.30;2252.80;;;;;;5080439;28;20082;-69
2021/04/21 00:43:20;;;;;;;18.83;11.85;;;205.30;2252.80;;;;;;5072884;28;20047;-69
2021/04/21 00:45:49;;;;;;;17.00;10.68;;;205.30;2252.80;;;;;;5072287;28;20029;-69
2021/04/21 00:48:34;;;;;;;17.35;11.23;;;205.30;2252.80;;;;;;5072223;28;20028;-71
2021/04/21 00:51:04;;;;;;;16.15;10.70;;;205.30;2252.80;;;;;;5071832;28;20040;-69
2021/04/21 00:53:53;;;;;;;16.98;10.60;;;205.30;2252.80;;;;;;5072553;28;20021;-69
2021/04/21 00:56:28;;;;;;;16.35;9.95;;;205.30;2252.80;;;;;;5072176;28;20032;-68
2021/04/21 00:59:03;;;;;;;15.20;10.38;;;205.30;2252.80;;;;;;5071835;28;20029;-70
2021/04/21 01:01:31;;;;;;;14.93;9.52;;;205.20;2252.80;;;;;;5078360;28;20055;-69
2021/04/21 01:03:57;;;;;;;13.95;9.40;;;205.20;2252.80;;;;;;5078636;28;20074;-69
2021/04/21 01:06:30;;;;;;;12.77;8.57;;;205.10;2252.80;;;;;;5071912;28;20133;-69
2021/04/21 01:09:00;;;;;;;12.45;8.98;;;205.10;2252.80;;;;;;5071567;28;20112;-70
2021/04/21 01:11:34;;;;;;;13.50;9.35;;;205.00;2252.80;;;;;;5071828;28;20020;-69
2021/04/21 01:14:05;;;;;;;13.90;8.75;;;205.00;2252.80;;;;;;5071928;28;20058;-69
2021/04/21 01:16:32;;;;;;;13.00;9.25;;;204.90;2252.80;;;;;;5071692;28;20417;-68
2021/04/21 01:19:07;;;;;;;13.55;9.38;;;204.90;2252.80;;;;;;5071509;28;20037;-69
2021/04/21 01:21:46;;;;;;;14.90;9.63;;;204.80;2252.80;;;;;;5071292;28;20013;-69
2021/04/21 01:24:43;;;;;;;14.52;9.70;;;204.80;2252.80;;;;;;5071630;28;20037;-70
2021/04/21 01:27:13;;;;;;;12.93;9.05;;;180.10;2252.80;;;;;;5060073;28;20036;-68
2021/04/21 01:29:48;;;;;;;13.18;8.77;;;180.10;2252.80;;;;;;5071087;28;20473;-70
2021/04/21 01:32:17;;;;;;;11.43;8.27;;;180.00;2252.80;;;;;;5071445;28;20052;-69
2021/04/21 01:34:46;;;;;;;13.38;8.90;;;180.00;2252.80;;;;;;5071308;28;20029;-69
2021/04/21 01:37:23;;;;;;;12.55;8.30;;;180.00;2252.80;;;;;;5071294;28;20024;-69
2021/04/21 01:40:15;;;;;;;11.82;8.75;;;180.00;2252.80;;;;;;5079257;28;20042;-71
2021/04/21 01:42:44;;;;;;;14.23;9.07;;;180.00;2252.80;;;;;;5071358;28;20054;-70
2021/04/21 01:45:13;;;;;;;13.83;9.00;;;180.00;2252.80;;;;;;5071286;28;20028;-70
2021/04/21 01:47:42;;;;;;;13.85;9.40;;;179.90;2252.80;;;;;;5074108;28;20050;-69
2021/04/21 01:50:12;;;;;;;13.18;9.50;;;179.90;2252.80;;;;;;5091308;28;20118;-69
2021/04/21 01:52:41;;;;;;;15.48;9.95;;;179.80;2252.80;;;;;;5063244;28;20009;-70
2021/04/21 01:55:41;;;;;;;14.90;9.75;;;179.70;2252.80;;;;;;5091419;28;20031;-70
2021/04/21 01:58:35;;;;;;;14.18;9.38;;;179.70;2252.80;;;;;;5087321;28;20036;-70
2021/04/21 02:01:24;;;;;;;14.38;8.63;;;179.60;2252.80;;;;;;5091403;28;20054;-69
2021/04/21 02:03:58;;;;;;;12.18;8.20;;;179.60;2252.80;;;;;;5035480;28;20028;-71
2021/04/21 02:06:33;;;;;;;12.90;8.45;;;179.60;2252.80;;;;;;5091308;28;20111;-70
2021/04/21 02:09:27;;;;;;;14.13;9.18;;;179.60;2252.80;;;;;;5091297;28;20035;-70
2021/04/21 02:12:17;;;;;;;13.25;9.15;;;179.60;2252.80;;;;;;5090789;28;20093;-70
2021/04/21 02:15:01;;;;;;;14.18;9.07;;;179.60;2252.80;;;;;;5049958;28;20071;-70
2021/04/21 02:17:36;;;;;;;12.68;8.98;;;179.60;2252.80;;;;;;5091252;28;20102;-70
2021/04/21 02:20:33;;;;;;;13.15;9.05;;;179.60;2252.80;;;;;;5090890;28;20038;-69
2021/04/21 02:23:26;;;;;;;14.10;8.98;;;179.70;2252.80;;;;;;5070979;28;20021;-70
2021/04/21 02:26:04;;;;;;;14.20;8.45;;;179.70;2252.80;;;;;;5090909;28;20105;-70
2021/04/21 02:29:09;;;;;;;12.93;9.18;;;179.70;2252.80;;;;;;5093710;28;20028;-70
2021/04/21 02:31:52;;;;;;;13.23;9.20;;;179.70;2252.80;;;;;;5084461;28;20102;-70
2021/04/21 02:35:00;;;;;;;13.60;9.02;;;179.70;2252.80;;;;;;5095003;28;20027;-70
2021/04/21 02:37:44;;;;;;;14.77;10.00;;;179.70;2252.80;;;;;;5094943;28;20028;-70
2021/04/21 02:40:13;;;;;;;14.43;9.98;;;179.70;2252.80;;;;;;5094944;28;20020;-70
2021/04/21 02:42:53;;;;;;;15.82;10.52;;;179.70;2252.80;;;;;;5094767;28;20020;-69
2021/04/21 02:45:19;;;;;;;17.70;11.30;;;179.70;2252.80;;;;;;5095226;28;20020;-70
2021/04/21 02:47:48;;;;;;;20.20;12.63;;;179.70;2252.80;;;;;;5094789;28;20035;-70
2021/04/21 02:50:33;;;;;;;19.10;11.93;;;179.70;2252.80;;;;;;5094552;28;20093;-70
2021/04/21 02:53:28;;;;;;;16.40;11.48;;;179.80;2252.80;;;;;;5094684;28;20357;-70
2021/04/21 02:56:15;;;;;;;15.68;11.38;;;179.80;2252.80;;;;;;5094713;28;20027;-70
2021/04/21 02:58:49;;;;;;;14.35;10.40;;;179.80;2252.80;;;;;;5072017;28;20028;-70
2021/04/21 03:01:45;;;;;;;13.98;10.25;;;179.90;2252.80;;;;;;5094785;28;20028;-71
2021/04/21 03:04:23;;;;;;;14.35;10.00;;;179.90;2252.80;;;;;;5094881;28;20195;-69
2021/04/21 03:06:50;;;;;;;13.32;9.75;;;179.90;2252.80;;;;;;5092926;28;20508;-70
2021/04/21 03:09:25;;;;;;;13.93;9.70;;;179.90;2252.80;;;;;;5094270;28;20028;-70
2021/04/21 03:11:53;;;;;;;17.92;13.27;;;179.90;2252.80;;;;;;5094070;28;20016;-70
2021/04/21 03:14:24;;;;;;;15.85;11.43;;;179.90;2252.80;;;;;;5094599;28;20020;-68
2021/04/21 03:16:59;;;;;;;16.00;10.88;;;179.80;2252.80;;;;;;5094101;28;20019;-70
2021/04/21 03:19:37;;;;;;;17.13;11.85;;;179.80;2252.80;;;;;;5094409;28;20369;-70
2021/04/21 03:22:14;;;;;;;16.48;12.13;;;179.80;2252.80;;;;;;5092936;28;20103;-70
2021/04/21 03:24:46;;;;;;;15.70;11.07;;;179.80;2252.80;;;;;;5094143;28;20077;-69
2021/04/21 03:27:13;;;;;;;14.80;10.60;;;179.80;2252.80;;;;;;5093942;28;20020;-70
2021/04/21 03:29:43;;;;;;;15.23;11.48;;;179.80;2252.80;;;;;;5093868;28;20098;-70
2021/04/21 03:32:13;;;;;;;29.02;17.20;;;179.80;2252.80;;;;;;5094021;28;20024;-70
2021/04/21 03:34:43;;;;;;;24.80;16.47;;;179.90;2252.80;;;;;;5085369;28;20021;-70
2021/04/21 03:37:24;;;;;;;26.67;16.30;;;180.00;2252.80;;;;;;5091267;28;20024;-71
2021/04/21 03:39:51;;;;;;;18.25;12.23;;;180.00;2252.80;;;;;;5092225;28;20020;-70
2021/04/21 03:42:17;;;;;;;15.18;10.80;;;180.10;2252.80;;;;;;5093664;28;20513;-70
2021/04/21 03:44:43;;;;;;;20.40;13.95;;;180.10;2252.80;;;;;;5093797;28;20107;-70
2021/04/21 03:47:10;;;;;;;18.75;12.60;;;180.10;2252.80;;;;;;5093589;28;20016;-70
2021/04/21 03:49:37;;;;;;;17.30;11.43;;;180.10;2252.80;;;;;;5093470;28;20044;-70
2021/04/21 03:52:05;;;;;;;17.27;11.68;;;204.80;2252.80;;;;;;5093643;28;20020;-69
2021/04/21 03:54:31;;;;;;;21.15;12.68;;;180.10;2252.80;;;;;;5093828;28;20017;-68
2021/04/21 03:57:00;;;;;;;54.25;25.25;;;180.10;2252.80;;;;;;5093733;28;20526;-68
2021/04/21 03:59:28;;;;;;;24.23;15.77;;;180.10;2252.80;;;;;;5093119;28;20468;-68
2021/04/21 04:01:56;;;;;;;26.58;16.58;;;180.10;2252.80;;;;;;5093450;28;20031;-68
2021/04/21 04:04:26;;;;;;;28.85;17.08;;;180.10;2252.80;;;;;;5093519;28;20060;-68
2021/04/21 04:06:56;;;;;;;24.80;15.80;;;204.80;2252.80;;;;;;5093399;28;20019;-69
2021/04/21 04:09:23;;;;;;;23.20;15.25;;;204.90;2252.80;;;;;;5093204;28;20024;-68
2021/04/21 04:11:56;;;;;;;20.73;13.50;;;205.00;2252.80;;;;;;5093023;28;20032;-69
2021/04/21 04:14:24;;;;;;;14.18;10.18;;;205.00;2252.80;;;;;;5093291;28;20042;-68
2021/04/21 04:16:56;;;;;;;14.27;10.25;;;205.10;2252.80;;;;;;5092980;28;20020;-68
2021/04/21 04:19:22;;;;;;;16.25;11.40;;;205.20;2252.80;;;;;;5092782;28;20057;-68
2021/04/21 04:21:54;;;;;;;207.27;79.18;;;205.20;2252.80;;;;;;5093151;28;20081;-68
2021/04/21 04:24:22;;;;;;;103.68;44.80;;;205.20;2252.80;;;;;;5092975;28;20066;-68
2021/04/21 04:26:49;;;;;;;36.00;20.00;;;205.20;2252.80;;;;;;5092776;28;20024;-68
2021/04/21 04:29:15;;;;;;;29.55;17.27;;;205.20;2252.80;;;;;;5092623;28;20107;-69
2021/04/21 04:31:41;;;;;;;17.15;12.23;;;205.30;2252.80;;;;;;5092885;28;20150;-68
2021/04/21 04:34:09;;;;;;;37.95;20.75;;;205.30;2252.80;;;;;;5092787;28;20012;-68
2021/04/21 04:36:39;;;;;;;39.92;22.05;;;205.40;2252.80;;;;;;5088440;28;20024;-69
2021/04/21 04:39:09;;;;;;;16.02;11.15;;;205.50;2252.80;;;;;;5088084;28;20012;-68
2021/04/21 04:41:39;;;;;;;13.38;9.57;;;205.60;2252.80;;;;;;5088465;28;20476;-68
2021/04/21 04:44:06;;;;;;;12.33;9.20;;;205.60;2252.80;;;;;;5088269;28;20391;-68
2021/04/21 04:46:37;;;;;;;42.90;24.02;;;205.70;2252.80;;;;;;5089370;28;20040;-68
2021/04/21 04:49:07;;;;;;;88.65;39.92;;;205.60;2252.80;;;;;;5086472;28;20020;-68
2021/04/21 04:51:36;;;;;;;42.95;20.50;;;205.70;2252.80;;;;;;5088895;28;20052;-69
2021/04/21 04:54:04;;;;;;;29.02;15.45;;;205.70;2252.80;;;;;;5086410;28;20072;-67
2021/04/21 04:56:35;;;;;;;41.15;23.08;;;230.40;2252.80;;;;;;5091082;28;20024;-68
2021/04/21 04:59:08;;;;;;;34.08;20.95;;;230.50;2252.80;;;;;;5092238;28;20062;-68
2021/04/21 05:01:56;;;;;;;17.35;12.43;;;230.60;2252.80;;;;;;5081676;28;20111;-67
2021/04/21 05:04:36;;;;;;;16.40;11.38;;;230.60;2252.80;;;;;;5079180;28;20070;-68
2021/04/21 05:07:06;;;;;;;17.42;11.63;;;230.60;2252.80;;;;;;5060200;28;20117;-68
2021/04/21 05:09:42;;;;;;;;;;;230.70;2252.80;;;;;;5054421;28;20021;-69
2021/04/21 05:12:12;;;;;;;15.68;10.85;;;230.80;2252.80;;;;;;5078691;28;20009;-68
2021/04/21 05:14:46;;;;;;;28.23;18.05;;;230.80;2252.80;;;;;;5072410;28;20025;-68
2021/04/21 05:17:40;;;;;;;20.13;14.40;;;230.70;2252.80;;;;;;5069323;28;20029;-68
2021/04/21 05:20:08;;;;;;;19.58;12.35;;;230.70;2252.80;;;;;;5069774;28;20031;-66
2021/04/21 05:22:42;;;;;;;29.30;16.48;;;230.60;2252.80;;;;;;5062525;28;20017;-66
2021/04/21 05:25:23;;;;;;;31.85;17.10;;;230.50;2252.80;;;;;;5070026;28;20028;-65
2021/04/21 05:28:01;;;;;;;36.10;17.10;;;230.50;2252.80;;;;;;5072988;28;20029;-66
2021/04/21 05:31:10;;;;;;;21.20;12.57;;;230.50;2252.80;;;;;;5074375;28;20031;-66
2021/04/21 05:34:13;;;;;;;23.50;12.40;;;205.70;2252.80;;;;;;5070892;28;20020;-66
2021/04/21 05:37:11;;;;;;;27.58;15.02;;;230.40;2252.80;;;;;;5068242;28;20025;-63
2021/04/21 05:39:42;;;;;;;37.17;21.60;;;230.50;2252.80;;;;;;5060843;28;20572;-68
2021/04/21 05:42:46;;;;;;;31.98;15.88;;;230.50;2252.80;;;;;;5081557;28;20028;-68
2021/04/21 05:45:33;;;;;;;40.92;16.95;;;230.70;2252.80;;;;;;5052114;28;20091;-67
2021/04/21 05:48:19;;;;;;;39.33;16.45;;;230.80;2252.80;;;;;;5055745;28;20021;-67
2021/04/21 05:51:04;;;;;;;31.83;14.18;;;230.90;2252.80;;;;;;5057168;28;20047;-68
2021/04/21 05:53:43;;;;;;;29.88;14.15;;;230.90;2252.80;;;;;;5055675;28;20017;-68
2021/04/21 05:56:36;;;;;;;23.25;12.88;;;231.00;2252.80;;;;;;5058281;28;20021;-66
2021/04/21 05:59:20;;;;;;;25.27;12.88;;;230.90;2252.80;;;;;;5051258;28;20363;-67
2021/04/21 06:01:47;;;;;;;22.60;11.95;;;230.90;2252.80;;;;;;5060169;28;20104;-70
2021/04/21 06:04:16;;;;;;;31.10;16.05;;;231.00;2252.80;;;;;;5054726;28;20033;-68
2021/04/21 06:06:41;;;;;;;16.05;10.30;;;230.90;2252.80;;;;;;5057378;28;20027;-68
2021/04/21 06:09:09;;;;;;;21.05;11.43;;;231.00;2252.80;;;;;;5054914;28;20033;-70
2021/04/21 06:11:36;;;;;;;21.70;15.95;;;231.00;2252.80;;;;;;5055620;28;20028;-69
2021/04/21 06:14:04;;;;;;;30.17;16.27;;;231.20;2252.80;;;;;;5051874;28;20025;-68
2021/04/21 06:16:31;;;;;;;15.40;10.30;;;231.20;2252.80;;;;;;5057283;28;20545;-69
2021/04/21 06:19:06;;;;;;;13.70;9.75;;;256.00;2252.80;;;;;;5053492;28;20039;-68
2021/04/21 06:21:39;;;;;;;14.30;10.52;;;256.20;2252.80;;;;;;5051927;28;20090;-68
2021/04/21 06:24:29;;;;;;;12.85;9.23;;;256.20;2252.80;;;;;;5050416;28;20017;-67
2021/04/21 06:27:08;;;;;;;16.20;11.23;;;256.70;2252.80;;;;;;5082702;28;20020;-68
2021/04/21 06:29:35;;;;;;;11.13;8.43;;;281.70;2278.40;;;;;;5073831;28;20033;-68
2021/04/21 06:32:03;;;;;;;11.02;8.52;;;282.30;2278.40;;;;;;5064456;28;20016;-68
2021/04/21 06:34:29;;;;;;;10.40;8.10;;;307.30;2304.00;;;;;;5055999;28;20029;-69
2021/04/21 06:37:00;;;;;;;12.48;8.82;;;308.10;2304.00;;;;;;5055938;28;20028;-69
2021/04/21 06:39:29;;;;;;;10.82;7.75;;;333.70;2329.60;;;;;;5058517;28;20041;-69
2021/04/21 06:42:00;;;;;;;16.27;12.27;;;333.70;2329.60;;;;;;5056110;28;20032;-70
2021/04/21 06:44:42;;;;;;;14.55;10.77;;;333.40;2329.60;;;;;;5053604;28;20139;-69
2021/04/21 06:47:22;;;;;;;18.52;13.63;;;332.90;2329.60;;;;;;5055480;28;20130;-69
2021/04/21 06:50:12;;;;;;;14.45;11.10;;;308.10;2304.00;;;;;;5051343;28;20291;-69
2021/04/21 06:52:39;;;;;;;16.33;13.35;;;307.80;2304.00;;;;;;5059877;28;20525;-69
2021/04/21 06:55:07;;;;;;;15.55;10.93;;;307.70;2304.00;;;;;;5051588;28;20021;-69
2021/04/21 06:57:34;;;;;;;14.35;9.63;;;307.50;2304.00;;;;;;5054686;28;20032;-68
2021/04/21 07:00:32;;;;;;;11.38;8.88;;;307.60;2304.00;;;;;;5054079;28;20040;-69
2021/04/21 07:02:58;;;;;;;12.63;10.20;;;307.80;2304.00;;;;;;5047248;28;20040;-68
2021/04/21 07:05:36;;;;;;;13.38;10.23;;;308.10;2304.00;;;;;;5075935;28;20547;-69
2021/04/21 07:08:14;;;;;;;12.25;8.85;;;308.10;2304.00;;;;;;5054363;28;20505;-66
2021/04/21 07:10:45;;;;;;;14.10;10.32;;;308.00;2304.00;;;;;;5087540;28;20500;-67
2021/04/21 07:13:15;;;;;;;;;;;308.00;2304.00;;;;;;5086257;28;20052;-69
2021/04/21 07:15:41;;;;;;;13.57;10.30;;;308.10;2304.00;;;;;;5065352;28;19908;-68
2021/04/21 07:18:12;;;;;;;13.45;9.98;;;308.10;2304.00;;;;;;5054745;28;20025;-72
2021/04/21 07:20:38;;;;;;;;;;;333.40;2329.60;;;;;;5059133;28;20124;-68
2021/04/21 07:23:04;;;;;;;11.88;8.95;;;384.30;2252.80;;;;;;5058174;28;19915;-69
2021/04/21 07:25:30;;;;;;;10.30;8.63;;;384.50;2099.20;;;;;;5060710;28;20025;-69
2021/04/21 07:27:56;;;;;;;10.98;9.40;;;435.30;1945.60;;;;;;5056313;28;20543;-69
2021/04/21 07:30:32;;;;;;;9.65;8.20;;;410.10;1945.60;;;;;;5060956;28;20016;-69
2021/04/21 07:32:59;;;;;;;9.45;8.02;;;435.80;1843.20;;;;;;5056058;28;20050;-68
2021/04/21 07:35:29;;;;;;;8.40;6.97;;;460.90;1843.20;;;;;;5055645;28;20021;-67
2021/04/21 07:37:56;;;;;;;9.88;7.63;;;461.20;1766.40;;;;;;5056984;28;20025;-69
2021/04/21 07:40:31;;;;;;;8.70;7.38;;;461.40;1740.80;;;;;;5065263;28;20029;-69
2021/04/21 07:43:09;;;;;;;7.78;6.88;;;460.90;1792.00;;;;;;5061779;28;20497;-68
2021/04/21 07:45:44;;;;;;;8.65;7.20;;;435.60;1792.00;;;;;;5062941;28;20027;-68
2021/04/21 07:48:35;;;;;;;10.25;7.28;;;435.20;1843.20;;;;;;5063481;28;20025;-68
2021/04/21 07:51:15;;;;;;;10.27;8.07;;;410.10;1843.20;;;;;;5062542;28;20084;-69
2021/04/21 07:53:52;;;;;;;;;;;384.60;1945.60;;;;;;5060647;28;20028;-67
2021/04/21 07:56:19;;;;;;;8.77;6.65;;;384.20;2048.00;;;;;;5058197;28;19903;-69
2021/04/21 07:58:46;;;;;;;10.13;6.68;;;359.30;2022.40;;;;;;5055047;28;20053;-69
2021/04/21 08:01:12;;;;;;;13.88;10.57;;;410.40;1945.60;;;;;;5070735;28;20033;-68
2021/04/21 08:03:38;;;;;;;9.40;7.72;;;487.00;1715.20;;;;;;5053785;28;20021;-69
2021/04/21 08:06:04;;;;;;;9.48;8.13;;;487.00;1664.00;;;;;;5053650;28;20029;-66
2021/04/21 08:08:31;;;;;;;11.60;9.35;;;512.40;1587.20;;;;;;5064582;28;20420;-65
2021/04/21 08:10:59;;;;;;;9.73;7.28;;;538.40;1484.80;;;;;;5061197;28;20453;-66
2021/04/21 08:13:46;;;;;;;11.82;10.00;;;538.40;1484.80;;;;;;5074999;28;20020;-67
2021/04/21 08:16:26;;;;;;;10.32;8.10;;;563.50;1459.20;;;;;;5061132;28;20602;-66
2021/04/21 08:18:54;;;;;;;;;;;588.80;1382.40;;;;;;5054532;28;20035;-66
2021/04/21 08:21:48;;;;;;;8.02;6.82;;;563.30;1433.60;;;;;;5053994;28;19905;-65
2021/04/21 08:24:19;;;;;;;8.77;7.28;;;563.70;1408.00;;;;;;5058495;28;20095;-64
2021/04/21 08:26:51;;;;;;;9.10;7.07;;;589.70;1356.80;;;;;;5063974;28;20032;-64
2021/04/21 08:29:17;;;;;;;10.55;8.50;;;564.10;1356.80;;;;;;5056590;28;20066;-64
2021/04/21 08:31:54;;;;;;;7.82;6.70;;;589.50;1331.20;;;;;;5057297;28;20075;-65
2021/04/21 08:34:20;;;;;;;8.80;7.40;;;640.70;1203.20;;;;;;5064876;28;20033;-65
2021/04/21 08:36:46;;;;;;;8.27;6.65;;;666.20;1177.60;;;;;;5055329;28;20036;-65
2021/04/21 08:39:12;;;;;;;8.57;6.20;;;716.90;1126.40;;;;;;5082922;28;20043;-65
2021/04/21 08:41:41;;;;;;;7.68;6.22;;;691.90;1049.60;;;;;;5055326;28;20029;-66
2021/04/21 08:44:08;;;;;;;8.27;6.65;;;716.80;1075.20;;;;;;5053136;28;20021;-65
2021/04/21 08:46:35;;;;;;;8.15;6.50;;;716.80;1075.20;;;;;;5052285;28;20025;-66
2021/04/21 08:49:02;;;;;;;8.02;5.97;;;691.60;1049.60;;;;;;5061954;28;20020;-65
2021/04/21 08:51:29;;;;;;;7.82;6.07;;;665.60;1100.80;;;;;;5056110;28;20409;-65
2021/04/21 08:54:02;;;;;;;7.80;6.13;;;615.20;1126.40;;;;;;5058519;28;20017;-65
2021/04/21 08:56:31;;;;;;;7.38;6.18;;;589.70;1177.60;;;;;;5052572;28;20020;-64
2021/04/21 08:58:58;;;;;;;8.32;6.25;;;589.10;1177.60;;;;;;5056686;28;20547;-65
2021/04/21 09:01:24;;;;;;;7.78;6.10;;;588.80;1228.80;;;;;;5063791;28;20554;-64
2021/04/21 09:03:50;;;;;;;9.30;6.03;;;563.90;1228.80;;;;;;5057735;28;20036;-65
2021/04/21 09:06:18;;;;;;;7.45;6.25;;;563.90;1254.40;;;;;;5059983;28;20056;-65
2021/04/21 09:08:48;;;;;;;7.22;6.20;;;564.10;1254.40;;;;;;5056365;28;20124;-65
2021/04/21 09:11:14;;;;;;;7.30;5.97;;;589.20;1228.80;;;;;;5052973;28;20040;-67
2021/04/21 09:13:41;;;;;;;7.32;5.90;;;589.20;1228.80;;;;;;5064041;28;20028;-66
2021/04/21 09:16:07;;;;;;;7.43;6.05;;;589.60;1203.20;;;;;;5062422;28;20473;-67
2021/04/21 09:18:35;;;;;;;7.05;5.88;;;614.70;1177.60;;;;;;5053363;28;20029;-67
2021/04/21 09:21:03;;;;;;;7.53;6.10;;;614.50;1177.60;;;;;;5051484;28;20021;-66
2021/04/21 09:23:37;;;;;;;8.77;6.47;;;589.60;1177.60;;;;;;5056389;28;20044;-65
2021/04/21 09:26:22;;;;;;;7.38;5.90;;;564.10;1228.80;;;;;;5055235;28;20017;-67
2021/04/21 09:28:51;;;;;;;7.57;5.97;;;563.40;1280.00;;;;;;5062885;28;20537;-67
2021/04/21 09:31:22;;;;;;;7.90;6.38;;;537.90;1305.60;;;;;;5059682;28;20477;-66
2021/04/21 09:34:05;;;;;;;8.18;6.50;;;512.70;1331.20;;;;;;5063257;28;20029;-67
2021/04/21 09:36:33;;;;;;;7.95;6.65;;;512.50;1331.20;;;;;;5061045;28;20017;-67
2021/04/21 09:39:16;;;;;;;7.78;6.03;;;512.00;1356.80;;;;;;5051723;28;20029;-66
2021/04/21 09:41:44;;;;;;;7.53;6.30;;;487.20;1382.40;;;;;;5072546;28;20028;-67
2021/04/21 09:44:19;;;;;;;8.02;6.47;;;486.60;1433.60;;;;;;5060118;28;20127;-67
2021/04/21 09:46:46;;;;;;;9.40;6.70;;;486.40;1459.20;;;;;;5052858;28;20375;-66
2021/04/21 09:49:27;;;;;;;8.20;6.22;;;486.60;1484.80;;;;;;5056140;28;20032;-66
2021/04/21 09:51:53;;;;;;;8.38;6.80;;;487.20;1433.60;;;;;;5061124;28;20090;-67
2021/04/21 09:54:33;;;;;;;7.32;5.78;;;512.80;1382.40;;;;;;5061812;28;20016;-66
2021/04/21 09:57:09;;;;;;;8.30;6.57;;;538.00;1356.80;;;;;;5065743;28;20107;-67
2021/04/21 09:59:35;;;;;;;15.07;10.75;;;538.00;1331.20;;;;;;5058777;28;20040;-68
2021/04/21 10:02:01;;;;;;;15.32;11.43;;;537.90;1382.40;;;;;;5059883;28;20033;-67
2021/04/21 10:04:28;;;;;;;14.07;10.25;;;512.30;1382.40;;;;;;5055219;28;20381;-67
2021/04/21 10:06:59;;;;;;;9.27;6.50;;;487.10;1433.60;;;;;;5056121;28;20025;-67
2021/04/21 10:09:34;;;;;;;;;;;486.60;1433.60;;;;;;5053354;28;20421;-68
2021/04/21 10:12:28;;;;;;;12.48;8.88;;;486.70;1408.00;;;;;;5051712;28;19908;-67
2021/04/21 10:15:11;;;;;;;8.10;6.45;;;486.50;1459.20;;;;;;5051310;28;20021;-67
2021/04/21 10:17:41;;;;;;;8.65;6.38;;;486.50;1510.40;;;;;;5064267;28;20477;-65
2021/04/21 10:20:11;;;;;;;8.25;6.50;;;461.40;1510.40;;;;;;5059192;28;20055;-66
2021/04/21 10:22:41;;;;;;;7.68;5.80;;;461.50;1561.60;;;;;;5053837;28;20048;-70
2021/04/21 10:25:09;;;;;;;7.20;5.53;;;460.90;1510.40;;;;;;5066683;28;20416;-66
2021/04/21 10:27:35;;;;;;;6.72;5.43;;;461.00;1587.20;;;;;;5052802;28;20037;-67
2021/04/21 10:30:04;;;;;;;8.63;6.15;;;461.40;1536.00;;;;;;5055196;28;20086;-67
2021/04/21 10:32:31;;;;;;;7.35;5.10;;;486.50;1510.40;;;;;;5050721;28;20017;-67
2021/04/21 10:34:58;;;;;;;7.63;5.95;;;486.70;1459.20;;;;;;5055843;28;20017;-69
2021/04/21 10:37:24;;;;;;;6.75;5.20;;;486.90;1408.00;;;;;;5058646;28;20013;-68
2021/04/21 10:39:54;;;;;;;6.50;5.07;;;512.20;1433.60;;;;;;5064869;28;20020;-66
2021/04/21 10:42:24;;;;;;;6.18;4.80;;;512.40;1356.80;;;;;;5056934;28;20055;-67
2021/04/21 10:44:52;;;;;;;25.25;12.20;;;512.90;1331.20;;;;;;5052084;28;20025;-66
2021/04/21 10:47:18;;;;;;;8.98;6.20;;;512.40;1305.60;;;;;;5051853;28;20027;-66
2021/04/21 10:49:57;;;;;;;7.05;5.43;;;487.10;1356.80;;;;;;5052910;28;20044;-67
2021/04/21 10:52:27;;;;;;;17.58;12.25;;;487.00;1331.20;;;;;;5063900;28;20519;-67
2021/04/21 10:54:55;;;;;;;6.03;4.78;;;487.30;1382.40;;;;;;5059364;28;20025;-69
2021/04/21 10:57:28;;;;;;;7.03;4.63;;;486.80;1382.40;;;;;;5055054;28;20032;-68
2021/04/21 11:00:15;;;;;;;6.00;4.50;;;487.20;1356.80;;;;;;5059352;28;20020;-66
2021/04/21 11:02:45;;;;;;;6.45;5.00;;;512.10;1305.60;;;;;;5066364;28;20017;-65
2021/04/21 11:05:41;;;;;;;6.43;5.10;;;487.30;1356.80;;;;;;5057675;28;20111;-67
2021/04/21 11:08:14;;;;;;;5.70;4.53;;;512.40;1382.40;;;;;;5055532;28;20039;-70
2021/04/21 11:11:04;;;;;;;6.38;5.05;;;537.60;1382.40;;;;;;5057692;28;20428;-72
2021/04/21 11:13:30;;;;;;;6.20;4.57;;;537.90;1331.20;;;;;;5060421;28;20024;-73
2021/04/21 11:15:56;;;;;;;11.80;8.70;;;538.00;1280.00;;;;;;5055981;28;20025;-67
2021/04/21 11:18:31;;;;;;;9.90;6.38;;;538.30;1331.20;;;;;;5057388;28;20032;-64
2021/04/21 11:21:04;;;;;;;6.40;4.50;;;538.40;1305.60;;;;;;5054207;28;20025;-66
2021/04/21 11:24:01;;;;;;;5.72;4.60;;;538.10;1280.00;;;;;;5070319;28;20554;-67
2021/04/21 11:26:28;;;;;;;5.68;4.47;;;537.90;1305.60;;;;;;5060831;28;20040;-67
2021/04/21 11:29:03;;;;;;;6.93;6.00;;;538.10;1254.40;;;;;;5065249;28;20056;-67
2021/04/21 11:34:12;;;;;;;;;;;538.20;1305.60;;;;;;5072018;28;20107;-66
2021/04/21 11:36:45;;;;;;;7.18;5.72;;;538.30;1280.00;;;;;;5072654;28;19913;-67
2021/04/21 11:39:12;;;;;;;6.10;4.97;;;538.20;1280.00;;;;;;5074430;28;20080;-66
2021/04/21 11:41:45;;;;;;;19.90;13.40;;;538.30;1331.20;;;;;;5059158;28;20075;-67
2021/04/21 11:44:45;;;;;;;6.97;5.25;;;538.30;1305.60;;;;;;5057761;28;20025;-67
2021/04/21 11:47:27;;;;;;;;;;;537.60;1305.60;;;;;;5060524;28;20032;-67
2021/04/21 11:50:02;;;;;;;6.88;5.50;;;537.90;1331.20;;;;;;5064795;28;19924;-66
2021/04/21 11:52:46;;;;;;;8.48;6.22;;;538.10;1305.60;;;;;;5076907;28;20051;-66
2021/04/21 11:55:26;;;;;;;7.70;4.82;;;537.70;1305.60;;;;;;5082759;28;20077;-67
2021/04/21 11:58:13;;;;;;;6.78;5.03;;;537.70;1331.20;;;;;;5092763;28;20034;-67
2021/04/21 12:00:39;;;;;;;9.85;7.68;;;537.90;1356.80;;;;;;5091419;28;20028;-66
2021/04/21 12:03:20;;;;;;;6.82;5.78;;;538.30;1305.60;;;;;;5093188;28;20103;-65
2021/04/21 12:05:48;;;;;;;6.70;5.80;;;538.30;1280.00;;;;;;5093195;28;20016;-66
2021/04/21 12:08:21;;;;;;;9.32;6.28;;;538.40;1254.40;;;;;;5092817;28;20031;-67
2021/04/21 12:10:48;;;;;;;6.53;5.38;;;538.40;1254.40;;;;;;5092795;28;20020;-67
2021/04/21 12:13:22;;;;;;;13.25;11.25;;;538.30;1254.40;;;;;;5092810;28;20031;-66
2021/04/21 12:15:52;;;;;;;12.90;10.40;;;538.40;1254.40;;;;;;5093208;28;20061;-68
2021/04/21 12:18:34;;;;;;;12.50;10.27;;;538.10;1280.00;;;;;;5092872;28;20028;-66
2021/04/21 12:21:06;;;;;;;7.90;6.93;;;538.10;1280.00;;;;;;5093197;28;20055;-67
2021/04/21 12:23:36;;;;;;;5.53;4.57;;;538.20;1280.00;;;;;;5092567;28;20365;-69
2021/04/21 12:26:04;;;;;;;6.07;4.82;;;538.10;1254.40;;;;;;5093188;28;20118;-67
2021/04/21 12:28:46;;;;;;;6.13;4.97;;;537.90;1305.60;;;;;;5092072;28;20032;-67
2021/04/21 12:31:12;;;;;;;6.65;5.03;;;512.90;1305.60;;;;;;5092254;28;20020;-67
2021/04/21 12:33:38;;;;;;;9.43;7.03;;;512.40;1356.80;;;;;;5092884;28;20099;-67
2021/04/21 12:36:04;;;;;;;5.88;4.75;;;487.30;1459.20;;;;;;5093114;28;20112;-67
2021/04/21 12:38:33;;;;;;;6.00;4.20;;;486.60;1484.80;;;;;;5056799;28;20032;-65
2021/04/21 12:41:01;;;;;;;7.10;4.88;;;461.10;1561.60;;;;;;5088089;28;20016;-66
2021/04/21 12:43:32;;;;;;;8.20;5.72;;;435.60;1689.60;;;;;;5083663;28;20103;-66